createdAt,value
2023-09-03T00:00:55.770Z,101232.72
2023-09-03T00:03:25.953Z,101231.44
2023-09-03T00:05:57.061Z,101224.44
2023-09-03T00:08:24.728Z,101232.38
2023-09-03T00:10:56.219Z,101231.84
2023-09-03T00:13:24.197Z,101241.25
2023-09-03T00:15:51.673Z,101234.56
2023-09-03T00:18:19.752Z,101234.50
2023-09-03T00:21:03.971Z,101239.00
2023-09-03T00:23:32.314Z,101239.19
2023-09-03T00:26:04.883Z,101241.84
2023-09-03T00:28:34.323Z,101240.13
2023-09-03T00:31:09.020Z,101237.28
2023-09-03T00:33:36.906Z,101231.13
2023-09-03T00:36:05.991Z,101229.88
2023-09-03T00:38:33.007Z,101230.72
2023-09-03T00:41:01.888Z,101224.31
2023-09-03T00:43:31.440Z,101230.84
2023-09-03T00:46:00.435Z,101219.91
2023-09-03T00:48:32.098Z,101218.31
2023-09-03T00:51:03.363Z,101222.78
2023-09-03T00:53:32.064Z,101213.97
2023-09-03T00:55:59.219Z,101207.69
2023-09-03T00:58:31.171Z,101224.66
2023-09-03T01:00:59.989Z,101223.56
2023-09-03T01:03:27.605Z,101227.22
2023-09-03T01:05:54.453Z,101228.50
2023-09-03T01:08:24.043Z,101220.66
2023-09-03T01:11:15.873Z,101227.81
2023-09-03T01:14:19.721Z,101222.41
2023-09-03T01:16:55.928Z,101224.09
2023-09-03T01:19:53.838Z,101222.81
2023-09-03T01:22:38.574Z,101215.97
2023-09-03T01:25:47.480Z,101224.22
2023-09-03T01:28:43.223Z,101221.91
2023-09-03T01:31:13.185Z,101226.25
2023-09-03T01:33:43.437Z,101231.41
2023-09-03T01:36:22.407Z,101234.81
2023-09-03T01:38:50.299Z,101229.78
2023-09-03T01:41:17.111Z,101241.84
2023-09-03T01:43:47.156Z,101243.00
2023-09-03T01:46:23.192Z,101242.13
2023-09-03T01:49:11.129Z,101250.59
2023-09-03T01:52:12.023Z,101258.69
2023-09-03T01:54:47.019Z,101261.09
2023-09-03T01:57:19.727Z,101264.75
2023-09-03T01:59:50.341Z,101264.13
2023-09-03T02:02:18.433Z,101271.47
2023-09-03T02:04:46.446Z,101274.13
2023-09-03T02:07:13.360Z,101276.44
2023-09-03T02:09:41.847Z,101276.97
2023-09-03T02:12:09.465Z,101270.25
2023-09-03T02:14:36.747Z,101277.31
2023-09-03T02:17:06.858Z,101270.66
2023-09-03T02:19:36.186Z,101272.44
2023-09-03T02:22:09.786Z,101278.50
2023-09-03T02:24:36.455Z,101293.19
2023-09-03T02:27:07.235Z,101291.84
2023-09-03T02:29:36.373Z,101290.31
2023-09-03T02:32:08.056Z,101294.47
2023-09-03T02:34:38.487Z,101295.25
2023-09-03T02:37:05.414Z,101288.88
2023-09-03T02:39:33.491Z,101287.97
2023-09-03T02:42:00.163Z,101288.44
2023-09-03T02:44:27.160Z,101285.78
2023-09-03T02:46:55.649Z,101284.59
2023-09-03T02:49:23.567Z,101286.13
2023-09-03T02:51:52.026Z,101286.38
2023-09-03T02:54:21.207Z,101287.13
2023-09-03T02:56:48.217Z,101294.31
2023-09-03T02:59:15.531Z,101296.94
2023-09-03T03:01:44.269Z,101287.91
2023-09-03T03:04:11.455Z,101302.91
2023-09-03T03:06:38.639Z,101307.63
2023-09-03T03:09:10.464Z,101305.75
2023-09-03T03:11:37.320Z,101309.81
2023-09-03T03:14:04.178Z,101312.25
2023-09-03T03:16:31.579Z,101307.94
2023-09-03T03:18:59.699Z,101315.31
2023-09-03T03:21:27.772Z,101308.00
2023-09-03T03:23:55.507Z,101308.50
2023-09-03T03:26:22.265Z,101292.63
2023-09-03T03:28:49.334Z,101304.97
2023-09-03T03:31:18.417Z,101304.41
2023-09-03T03:33:47.465Z,101301.53
2023-09-03T03:36:16.940Z,101302.09
2023-09-03T03:38:47.919Z,101312.03
2023-09-03T03:41:16.708Z,101315.97
2023-09-03T03:43:45.110Z,101322.63
2023-09-03T03:46:15.941Z,101319.75
2023-09-03T03:48:43.616Z,101319.19
2023-09-03T03:51:10.917Z,101330.47
2023-09-03T03:53:39.069Z,101331.53
2023-09-03T03:56:10.216Z,101325.69
2023-09-03T03:58:39.145Z,101331.22
2023-09-03T04:01:14.007Z,101336.28
2023-09-03T04:03:41.565Z,101340.25
2023-09-03T04:06:10.205Z,101339.47
2023-09-03T04:08:38.859Z,101326.91
2023-09-03T04:11:08.510Z,101335.84
2023-09-03T04:13:37.475Z,101322.63
2023-09-03T04:16:12.415Z,101319.94
2023-09-03T04:18:39.377Z,101319.72
2023-09-03T04:21:11.717Z,101321.75
2023-09-03T04:23:39.378Z,101326.47
2023-09-03T04:26:06.522Z,101335.84
2023-09-03T04:28:33.730Z,101324.38
2023-09-03T04:31:05.862Z,101324.06
2023-09-03T04:33:32.734Z,101329.22
2023-09-03T04:36:01.855Z,101328.69
2023-09-03T04:38:28.749Z,101330.13
2023-09-03T04:40:59.453Z,101335.63
2023-09-03T04:43:28.789Z,101324.97
2023-09-03T04:45:58.278Z,101327.16
2023-09-03T04:48:26.957Z,101331.22
2023-09-03T04:50:54.139Z,101335.53
2023-09-03T04:53:21.564Z,101342.25
2023-09-03T04:55:49.057Z,101340.28
2023-09-03T04:58:15.726Z,101346.88
2023-09-03T05:00:43.570Z,101350.84
2023-09-03T05:03:10.272Z,101363.75
2023-09-03T05:05:45.653Z,101360.09
2023-09-03T05:08:12.848Z,101366.16
2023-09-03T05:10:42.997Z,101368.91
2023-09-03T05:13:10.653Z,101372.31
2023-09-03T05:15:41.657Z,101383.69
2023-09-03T05:18:10.749Z,101389.28
2023-09-03T05:20:39.295Z,101392.59
2023-09-03T05:23:06.276Z,101392.38
2023-09-03T05:25:34.436Z,101394.38
2023-09-03T05:28:03.459Z,101401.88
2023-09-03T05:30:31.380Z,101405.72
2023-09-03T05:32:58.521Z,101404.94
2023-09-03T05:35:25.860Z,101406.50
2023-09-03T05:37:52.468Z,101409.81
2023-09-03T05:40:20.592Z,101412.19
2023-09-03T05:42:49.199Z,101417.34
2023-09-03T05:45:16.929Z,101416.94
2023-09-03T05:47:44.795Z,101420.72
2023-09-03T05:50:14.060Z,101425.41
2023-09-03T05:52:48.510Z,101423.56
2023-09-03T05:55:16.906Z,101426.28
2023-09-03T05:57:43.545Z,101430.34
2023-09-03T06:00:12.896Z,101439.94
2023-09-03T06:02:39.878Z,101440.94
2023-09-03T06:05:07.737Z,101441.78
2023-09-03T06:07:38.053Z,101433.72
2023-09-03T06:10:06.420Z,101432.63
2023-09-03T06:12:33.629Z,101443.84
2023-09-03T06:15:00.737Z,101439.28
2023-09-03T06:17:28.597Z,101440.59
2023-09-03T06:19:55.338Z,101444.72
2023-09-03T06:22:22.116Z,101453.59
2023-09-03T06:24:49.160Z,101451.25
2023-09-03T06:27:17.520Z,101455.25
2023-09-03T06:29:44.236Z,101461.59
2023-09-03T06:32:11.641Z,101462.63
2023-09-03T06:34:39.350Z,101465.91
2023-09-03T06:37:06.891Z,101479.88
2023-09-03T06:39:34.026Z,101482.59
2023-09-03T06:42:05.103Z,101492.34
2023-09-03T06:44:31.934Z,101494.44
2023-09-03T06:47:00.155Z,101497.94
2023-09-03T06:49:27.895Z,101493.28
2023-09-03T06:51:54.527Z,101502.00
2023-09-03T06:54:23.922Z,101508.16
2023-09-03T06:56:50.882Z,101510.16
2023-09-03T06:59:33.503Z,101517.47
2023-09-03T07:02:01.596Z,101532.25
2023-09-03T07:04:28.665Z,101531.75
2023-09-03T07:06:55.463Z,101533.50
2023-09-03T07:09:22.207Z,101535.59
2023-09-03T07:11:52.594Z,101540.56
2023-09-03T07:14:20.649Z,101538.16
2023-09-03T07:16:47.354Z,101548.50
2023-09-03T07:19:13.968Z,101556.31
2023-09-03T07:21:40.797Z,101559.88
2023-09-03T07:24:07.644Z,101559.13
2023-09-03T07:26:34.350Z,101566.13
2023-09-03T07:29:12.177Z,101567.94
2023-09-03T07:31:42.107Z,101563.38
2023-09-03T07:34:15.444Z,101569.69
2023-09-03T07:36:43.896Z,101563.81
2023-09-03T07:39:11.320Z,101561.22
2023-09-03T07:41:39.004Z,101580.38
2023-09-03T07:44:06.893Z,101582.25
2023-09-03T07:46:38.860Z,101582.16
2023-09-03T07:49:12.432Z,101586.50
2023-09-03T07:51:40.172Z,101590.94
2023-09-03T07:54:07.359Z,101593.47
2023-09-03T07:56:35.099Z,101594.13
2023-09-03T07:59:02.883Z,101588.41
2023-09-03T08:01:31.493Z,101589.03
2023-09-03T08:03:58.527Z,101594.53
2023-09-03T08:06:27.930Z,101590.78
2023-09-03T08:08:56.117Z,101600.88
2023-09-03T08:11:23.163Z,101606.78
2023-09-03T08:13:53.252Z,101608.56
2023-09-03T08:16:20.734Z,101615.75
2023-09-03T08:18:47.931Z,101631.78
2023-09-03T08:21:16.074Z,101633.84
2023-09-03T08:23:43.300Z,101636.56
2023-09-03T08:26:10.095Z,101622.91
2023-09-03T08:28:37.091Z,101634.94
2023-09-03T08:31:03.788Z,101632.44
2023-09-03T08:33:31.232Z,101628.81
2023-09-03T08:35:57.934Z,101627.66
2023-09-03T08:38:27.056Z,101630.41
2023-09-03T08:40:54.228Z,101625.09
2023-09-03T08:43:23.540Z,101635.19
2023-09-03T08:46:00.705Z,101630.97
2023-09-03T08:48:29.089Z,101634.06
2023-09-03T08:50:57.013Z,101630.00
2023-09-03T08:53:24.073Z,101629.56
2023-09-03T08:55:52.178Z,101626.09
2023-09-03T08:58:19.412Z,101618.41
2023-09-03T09:00:46.683Z,101625.69
2023-09-03T09:03:16.131Z,101621.78
2023-09-03T09:05:46.828Z,101617.22
2023-09-03T09:08:14.401Z,101618.25
2023-09-03T09:10:44.677Z,101608.88
2023-09-03T09:13:13.905Z,101623.41
2023-09-03T09:15:44.045Z,101628.41
2023-09-03T09:18:11.503Z,101640.09
2023-09-03T09:20:40.674Z,101644.56
2023-09-03T09:23:12.687Z,101644.41
2023-09-03T09:25:44.268Z,101636.22
2023-09-03T09:28:13.766Z,101630.31
2023-09-03T09:30:54.524Z,101630.72
2023-09-03T09:33:23.459Z,101630.53
2023-09-03T09:35:55.186Z,101632.22
2023-09-03T09:38:35.887Z,101627.97
2023-09-03T09:41:23.255Z,101630.31
2023-09-03T09:43:51.242Z,101638.00
2023-09-03T09:46:31.956Z,101630.69
2023-09-03T09:49:01.288Z,101626.50
2023-09-03T09:51:32.502Z,101626.06
2023-09-03T09:54:01.191Z,101625.28
2023-09-03T09:56:32.694Z,101623.66
2023-09-03T09:58:59.924Z,101627.31
2023-09-03T10:01:43.309Z,101623.91
2023-09-03T10:04:10.929Z,101621.59
2023-09-03T10:06:37.900Z,101623.66
2023-09-03T10:09:04.959Z,101622.13
2023-09-03T10:11:33.223Z,101618.81
2023-09-03T10:14:02.248Z,101627.19
2023-09-03T10:16:31.707Z,101628.63
2023-09-03T10:19:04.719Z,101629.97
2023-09-03T10:21:52.581Z,101633.22
2023-09-03T10:24:21.956Z,101630.81
2023-09-03T10:26:54.746Z,101627.78
2023-09-03T10:29:23.655Z,101637.53
2023-09-03T10:31:54.536Z,101631.84
2023-09-03T10:37:09.084Z,101623.06
2023-09-03T10:39:38.572Z,101625.34
2023-09-03T10:42:25.385Z,101635.50
2023-09-03T10:44:55.044Z,101632.31
2023-09-03T10:47:23.120Z,101634.19
2023-09-03T10:49:55.011Z,101628.81
2023-09-03T10:52:35.957Z,101626.09
2023-09-03T10:55:21.456Z,101625.22
2023-09-03T10:57:51.268Z,101626.56
2023-09-03T11:00:25.585Z,101628.41
2023-09-03T11:03:20.512Z,101626.06
2023-09-03T11:06:19.995Z,101629.22
2023-09-03T11:08:47.701Z,101631.81
2023-09-03T11:11:24.674Z,101631.88
2023-09-03T11:13:54.789Z,101625.72
2023-09-03T11:16:35.664Z,101615.66
2023-09-03T11:19:05.569Z,101621.50
2023-09-03T11:21:32.401Z,101638.44
2023-09-03T11:24:16.413Z,101625.81
2023-09-03T11:26:46.397Z,101631.06
2023-09-03T11:29:25.291Z,101626.00
2023-09-03T11:31:54.114Z,101620.09
2023-09-03T11:34:30.177Z,101621.38
2023-09-03T11:36:58.217Z,101616.25
2023-09-03T11:39:30.491Z,101617.59
2023-09-03T11:41:57.490Z,101622.25
2023-09-03T11:44:26.910Z,101617.19
2023-09-03T11:46:59.152Z,101627.19
2023-09-03T11:49:26.220Z,101614.28
2023-09-03T11:51:55.070Z,101614.34
2023-09-03T11:54:28.216Z,101610.88
2023-09-03T11:56:58.761Z,101612.41
2023-09-03T11:59:25.636Z,101624.34
2023-09-03T12:01:54.015Z,101627.34
2023-09-03T12:04:21.388Z,101624.31
2023-09-03T12:06:50.464Z,101597.22
2023-09-03T12:09:24.199Z,101615.69
2023-09-03T12:11:53.340Z,101612.34
2023-09-03T12:14:32.538Z,101600.41
2023-09-03T12:16:59.520Z,101598.56
2023-09-03T12:19:51.972Z,101607.19
2023-09-03T12:22:21.253Z,101599.19
2023-09-03T12:24:49.883Z,101607.50
2023-09-03T12:27:21.487Z,101610.38
2023-09-03T12:29:56.729Z,101607.41
2023-09-03T12:32:40.249Z,101602.34
2023-09-03T12:35:20.492Z,101600.53
2023-09-03T12:37:50.006Z,101598.22
2023-09-03T12:40:20.844Z,101602.59
2023-09-03T12:42:47.875Z,101596.69
2023-09-03T12:45:14.628Z,101597.97
2023-09-03T12:47:44.371Z,101587.97
2023-09-03T12:50:11.656Z,101595.63
2023-09-03T12:52:39.225Z,101580.03
2023-09-03T12:55:08.485Z,101588.28
2023-09-03T12:57:36.390Z,101589.44
2023-09-03T13:00:06.107Z,101588.19
2023-09-03T13:02:33.207Z,101588.84
2023-09-03T13:05:01.648Z,101587.59
2023-09-03T13:07:29.279Z,101594.06
2023-09-03T13:09:56.270Z,101590.63
2023-09-03T13:12:23.447Z,101579.69
2023-09-03T13:14:50.095Z,101588.19
2023-09-03T13:17:21.472Z,101579.84
2023-09-03T13:19:53.294Z,101573.41
2023-09-03T13:22:22.866Z,101586.22
2023-09-03T13:24:50.008Z,101576.59
2023-09-03T13:27:16.802Z,101578.13
2023-09-03T13:29:45.588Z,101577.63
2023-09-03T13:32:12.756Z,101579.34
2023-09-03T13:34:43.322Z,101581.41
2023-09-03T13:37:10.019Z,101581.78
2023-09-03T13:39:39.110Z,101577.69
2023-09-03T13:42:06.656Z,101589.19
2023-09-03T13:44:35.320Z,101579.03
2023-09-03T13:47:03.863Z,101592.13
2023-09-03T13:49:31.866Z,101595.47
2023-09-03T13:51:58.545Z,101594.50
2023-09-03T13:54:27.051Z,101590.28
2023-09-03T13:56:54.693Z,101588.00
2023-09-03T13:59:23.106Z,101584.97
2023-09-03T14:01:50.279Z,101590.81
2023-09-03T14:04:20.388Z,101584.50
2023-09-03T14:06:47.847Z,101588.44
2023-09-03T14:09:19.416Z,101594.47
2023-09-03T14:11:46.569Z,101592.13
2023-09-03T14:14:15.232Z,101583.31
2023-09-03T14:16:42.435Z,101587.44
2023-09-03T14:19:13.010Z,101581.31
2023-09-03T14:21:39.680Z,101583.97
2023-09-03T14:24:10.072Z,101575.94
2023-09-03T14:26:36.752Z,101587.06
2023-09-03T14:29:11.457Z,101587.44
2023-09-03T14:31:41.601Z,101584.25
2023-09-03T14:34:09.462Z,101585.09
2023-09-03T14:36:36.862Z,101581.31
2023-09-03T14:39:06.380Z,101580.56
2023-09-03T14:41:33.337Z,101585.91
2023-09-03T14:44:01.318Z,101589.00
2023-09-03T14:46:29.297Z,101595.69
2023-09-03T14:48:56.656Z,101587.44
2023-09-03T14:51:25.164Z,101584.78
2023-09-03T14:53:54.371Z,101588.16
2023-09-03T14:56:25.255Z,101585.88
2023-09-03T14:58:53.460Z,101585.53
2023-09-03T15:01:24.454Z,101592.41
2023-09-03T15:03:51.757Z,101590.09
2023-09-03T15:06:21.580Z,101584.34
2023-09-03T15:08:49.824Z,101582.84
2023-09-03T15:11:17.408Z,101580.91
2023-09-03T15:13:47.842Z,101584.34
2023-09-03T15:16:16.876Z,101580.53
2023-09-03T15:18:43.732Z,101580.94
2023-09-03T15:21:11.035Z,101581.69
2023-09-03T15:23:38.350Z,101589.75
2023-09-03T15:26:06.678Z,101588.22
2023-09-03T15:28:36.538Z,101581.66
2023-09-03T15:31:04.184Z,101572.84
2023-09-03T15:33:36.050Z,101575.97
2023-09-03T15:36:06.125Z,101574.38
2023-09-03T15:38:38.090Z,101571.31
2023-09-03T15:41:05.649Z,101575.16
2023-09-03T15:43:33.276Z,101564.09
2023-09-03T15:46:01.096Z,101566.38
2023-09-03T15:48:28.857Z,101576.22
2023-09-03T15:50:56.923Z,101579.63
2023-09-03T15:53:25.572Z,101578.53
2023-09-03T15:55:55.684Z,101586.13
2023-09-03T15:58:24.252Z,101575.16
2023-09-03T16:00:52.637Z,101582.31
2023-09-03T16:03:22.151Z,101578.06
2023-09-03T16:05:49.508Z,101577.28
2023-09-03T16:08:16.442Z,101581.13
2023-09-03T16:10:45.242Z,101585.97
2023-09-03T16:13:12.783Z,101582.25
2023-09-03T16:15:47.284Z,101591.09
2023-09-03T16:18:18.297Z,101580.75
2023-09-03T16:20:48.245Z,101584.53
2023-09-03T16:23:15.032Z,101575.00
2023-09-03T16:25:41.726Z,101574.53
2023-09-03T16:28:13.029Z,101578.69
2023-09-03T16:30:40.742Z,101583.25
2023-09-03T16:33:07.659Z,101577.00
2023-09-03T16:35:36.921Z,101581.63
2023-09-03T16:38:05.426Z,101578.16
2023-09-03T16:40:35.310Z,101575.47
2023-09-03T16:43:02.289Z,101585.38
2023-09-03T16:45:32.316Z,101581.91
2023-09-03T16:50:42.097Z,101582.88
2023-09-03T16:53:08.820Z,101588.16
2023-09-03T16:55:35.921Z,101589.38
2023-09-03T16:58:03.641Z,101589.69
2023-09-03T17:00:32.295Z,101591.19
2023-09-03T17:03:00.603Z,101592.09
2023-09-03T17:05:27.754Z,101591.28
2023-09-03T17:08:00.211Z,101579.84
2023-09-03T17:10:27.499Z,101588.56
2023-09-03T17:12:55.287Z,101583.63
2023-09-03T17:15:24.342Z,101582.00
2023-09-03T17:17:52.171Z,101589.22
2023-09-03T17:20:18.869Z,101584.13
2023-09-03T17:22:50.386Z,101584.13
2023-09-03T17:25:18.673Z,101580.13
2023-09-03T17:27:45.951Z,101585.19
2023-09-03T17:30:18.341Z,101588.59
2023-09-03T17:32:46.484Z,101583.13
2023-09-03T17:35:13.738Z,101584.31
2023-09-03T17:37:40.399Z,101585.28
2023-09-03T17:40:12.971Z,101590.59
2023-09-03T17:42:41.131Z,101588.53
2023-09-03T17:45:10.880Z,101584.69
2023-09-03T17:47:41.378Z,101590.69
2023-09-03T17:50:10.190Z,101584.22
2023-09-03T17:52:37.215Z,101579.56
2023-09-03T17:55:08.860Z,101587.53
2023-09-03T17:57:35.952Z,101581.09
2023-09-03T18:00:05.722Z,101587.59
2023-09-03T18:02:33.505Z,101586.41
2023-09-03T18:05:00.424Z,101585.13
2023-09-03T18:07:27.942Z,101595.56
2023-09-03T18:09:59.693Z,101593.16
2023-09-03T18:12:27.708Z,101597.38
2023-09-03T18:14:57.730Z,101592.44
2023-09-03T18:17:25.668Z,101596.09
2023-09-03T18:19:52.962Z,101593.44
2023-09-03T18:22:20.053Z,101593.09
2023-09-03T18:24:48.636Z,101599.16
2023-09-03T18:27:15.536Z,101606.91
2023-09-03T18:29:46.867Z,101598.78
2023-09-03T18:32:15.085Z,101601.66
2023-09-03T18:34:44.583Z,101607.59
2023-09-03T18:37:12.039Z,101616.28
2023-09-03T18:39:42.778Z,101608.66
2023-09-03T18:42:09.744Z,101610.13
2023-09-03T18:44:36.897Z,101607.38
2023-09-03T18:47:03.986Z,101603.78
2023-09-03T18:49:35.897Z,101596.16
2023-09-03T18:52:05.774Z,101603.31
2023-09-03T18:54:33.666Z,101596.09
2023-09-03T18:57:00.558Z,101598.22
2023-09-03T18:59:28.462Z,101600.28
2023-09-03T19:01:55.666Z,101603.63
2023-09-03T19:04:24.005Z,101599.34
2023-09-03T19:06:52.799Z,101600.72
2023-09-03T19:09:21.186Z,101607.22
2023-09-03T19:11:48.193Z,101618.97
2023-09-03T19:14:18.363Z,101625.47
2023-09-03T19:16:45.578Z,101615.28
2023-09-03T19:19:12.616Z,101615.63
2023-09-03T19:21:40.378Z,101625.13
2023-09-03T19:24:09.940Z,101619.66
2023-09-03T19:26:41.440Z,101629.84
2023-09-03T19:29:08.199Z,101632.31
2023-09-03T19:31:35.233Z,101628.38
2023-09-03T19:34:18.253Z,101619.38
2023-09-03T19:36:50.448Z,101612.84
2023-09-03T19:39:18.683Z,101611.22
2023-09-03T19:41:46.285Z,101615.06
2023-09-03T19:44:14.580Z,101607.53
2023-09-03T19:46:43.632Z,101606.28
2023-09-03T19:49:10.925Z,101597.03
2023-09-03T19:51:37.642Z,101588.66
2023-09-03T19:54:04.516Z,101592.25
2023-09-03T19:56:31.777Z,101595.94
2023-09-03T19:58:58.624Z,101587.78
2023-09-03T20:01:28.741Z,101599.22
2023-09-03T20:03:55.652Z,101590.88
2023-09-03T20:06:24.136Z,101592.13
2023-09-03T20:08:54.217Z,101584.50
2023-09-03T20:11:21.635Z,101595.59
2023-09-03T20:13:48.443Z,101600.78
2023-09-03T20:16:15.197Z,101611.31
2023-09-03T20:18:44.169Z,101612.16
2023-09-03T20:21:13.527Z,101622.06
2023-09-03T20:23:41.853Z,101624.66
2023-09-03T20:26:08.946Z,101623.28
2023-09-03T20:31:08.017Z,101607.44
2023-09-03T20:33:38.550Z,101613.50
2023-09-03T20:36:07.066Z,101628.09
2023-09-03T20:38:33.873Z,101626.19
2023-09-03T20:41:04.765Z,101637.81
2023-09-03T20:43:31.913Z,101629.31
2023-09-03T20:46:00.199Z,101631.50
2023-09-03T20:48:32.064Z,101626.78
2023-09-03T20:51:04.607Z,101623.00
2023-09-03T20:57:32.373Z,101625.66
2023-09-03T21:00:39.559Z,101620.72
2023-09-03T21:03:06.423Z,101618.72
2023-09-03T21:05:33.545Z,101618.94
2023-09-03T21:08:03.083Z,101615.75
2023-09-03T21:10:33.136Z,101627.00
2023-09-03T21:13:01.136Z,101631.09
2023-09-03T21:15:27.822Z,101617.50
2023-09-03T21:17:58.742Z,101623.88
2023-09-03T21:20:25.471Z,101615.06
2023-09-03T21:22:57.999Z,101614.94
2023-09-03T21:25:26.062Z,101610.84
2023-09-03T21:27:55.397Z,101614.28
2023-09-03T21:30:24.890Z,101617.25
2023-09-03T21:32:52.842Z,101611.63
2023-09-03T21:35:24.043Z,101619.44
2023-09-03T21:37:54.937Z,101613.47
2023-09-03T21:40:21.853Z,101619.97
2023-09-03T21:42:51.894Z,101616.44
2023-09-03T21:45:19.045Z,101610.41
2023-09-03T21:47:47.779Z,101618.75
2023-09-03T21:50:15.918Z,101622.56
2023-09-03T21:52:44.140Z,101629.66
2023-09-03T21:55:12.485Z,101630.13
2023-09-03T21:57:39.758Z,101636.88
2023-09-03T22:00:11.283Z,101635.22
2023-09-03T22:02:47.632Z,101635.75
2023-09-03T22:05:15.587Z,101631.31
2023-09-03T22:07:42.795Z,101631.44
2023-09-03T22:10:10.878Z,101632.97
2023-09-03T22:12:37.657Z,101635.75
2023-09-03T22:15:05.924Z,101631.13
2023-09-03T22:17:33.841Z,101640.13
2023-09-03T22:20:00.609Z,101629.44
2023-09-03T22:22:28.013Z,101640.03
2023-09-03T22:24:54.848Z,101650.28
2023-09-03T22:27:25.215Z,101651.25
2023-09-03T22:29:52.504Z,101645.69
2023-09-03T22:32:19.156Z,101646.50
2023-09-03T22:34:45.833Z,101640.59
2023-09-03T22:37:14.571Z,101648.97
2023-09-03T22:39:44.507Z,101644.34
2023-09-03T22:42:12.049Z,101646.22
2023-09-03T22:44:39.235Z,101643.03
2023-09-03T22:47:07.780Z,101642.59
2023-09-03T22:49:34.723Z,101633.78
2023-09-03T22:52:01.425Z,101647.19
2023-09-03T22:54:28.174Z,101660.72
2023-09-03T22:56:54.922Z,101662.94
2023-09-03T22:59:24.676Z,101657.06
2023-09-03T23:01:51.498Z,101655.59
2023-09-03T23:04:18.296Z,101641.19
2023-09-03T23:06:45.400Z,101660.53
2023-09-03T23:09:12.431Z,101656.34
2023-09-03T23:11:41.869Z,101659.06
2023-09-03T23:14:08.581Z,101656.47
2023-09-03T23:16:35.605Z,101658.81
2023-09-03T23:19:05.547Z,101667.25
2023-09-03T23:21:32.297Z,101660.88
2023-09-03T23:24:01.932Z,101662.78
2023-09-03T23:26:32.123Z,101665.59
2023-09-03T23:29:32.824Z,101658.75
2023-09-03T23:32:00.184Z,101658.50
2023-09-03T23:34:26.801Z,101657.09
2023-09-03T23:36:53.460Z,101658.03
2023-09-03T23:39:21.028Z,101656.53
2023-09-03T23:41:47.755Z,101656.97
2023-09-03T23:44:15.461Z,101651.13
2023-09-03T23:46:42.136Z,101657.19
2023-09-03T23:49:09.230Z,101643.22
2023-09-03T23:51:35.872Z,101653.34
2023-09-03T23:54:05.904Z,101659.72
2023-09-03T23:56:32.674Z,101640.91
2023-09-03T23:58:59.557Z,101640.75
